Time;durP1;ratioP1;P1;durP2;ratioP2;P2;SDS_P1;SDS_P2;PMS_P1;PMS_P2;Temp;Humidity;BMP_temperature;BMP_pressure;BME280_temperature;BME280_humidity;BME280_pressure;Samples;Min_cycle;Max_cycle;Signal;HPM_P1;HPM_P2
2023/10/01 00:08:53;;;;;;;21.70;9.57;;;;;;;22.86;44.96;100327.84;31457134;28;20128;-79
2023/10/01 00:23:56;;;;;;;20.25;10.50;;;;;;;22.63;46.64;100326.94;31462366;28;20087;-79
2023/10/01 00:38:58;;;;;;;23.63;11.17;;;;;;;22.41;48.14;100313.78;31460110;28;20531;-79
2023/10/01 00:54:02;;;;;;;22.55;10.45;;;;;;;22.06;50.19;100311.28;31462770;28;20048;-79
2023/10/01 01:09:10;;;;;;;21.27;9.37;;;;;;;21.73;51.32;100303.50;31451150;28;20083;-79
2023/10/01 01:24:13;;;;;;;18.85;9.43;;;;;;;21.41;52.52;100306.22;31465400;28;20120;-81
2023/10/01 01:39:29;;;;;;;20.23;9.55;;;;;;;21.34;53.56;100300.38;31464260;28;20048;-79
2023/10/01 01:54:45;;;;;;;24.13;10.73;;;;;;;21.57;53.25;100298.56;31507066;28;20060;-78
2023/10/01 02:09:48;;;;;;;18.08;9.07;;;;;;;21.44;54.63;100310.78;31491710;28;20045;-79
2023/10/01 02:24:58;;;;;;;17.80;10.07;;;;;;;21.16;55.26;100290.38;31513725;28;20047;-79
2023/10/01 02:40:00;;;;;;;19.70;10.00;;;;;;;21.24;57.19;100299.78;31511961;28;20056;-80
2023/10/01 02:55:17;;;;;;;22.67;9.05;;;;;;;21.25;65.83;100298.53;31485793;28;20147;-81
2023/10/01 03:10:26;;;;;;;19.55;10.90;;;;;;;21.09;77.21;100282.53;31462563;28;20364;-79
2023/10/01 03:25:59;;;;;;;25.20;11.43;;;;;;;20.95;72.70;100283.38;31496145;28;20056;-79
2023/10/01 03:41:02;;;;;;;36.42;14.57;;;;;;;21.18;66.39;100284.38;31480186;28;20099;-78
2023/10/01 03:56:07;;;;;;;31.00;11.68;;;;;;;21.35;62.63;100279.78;31505427;28;20062;-79
2023/10/01 04:11:11;;;;;;;29.65;14.93;;;;;;;21.35;62.17;100290.84;31492830;28;20139;-80
2023/10/01 04:26:16;;;;;;;34.63;15.43;;;;;;;21.65;58.15;100294.13;31470312;28;20508;-80
2023/10/01 04:41:19;;;;;;;26.73;13.50;;;;;;;22.05;58.62;100274.59;31511543;28;20110;-81
2023/10/01 04:56:21;;;;;;;38.58;15.40;;;;;;;22.63;57.97;100271.63;31470688;28;20052;-86
2023/10/01 05:11:29;;;;;;;30.65;12.80;;;;;;;23.25;59.09;100281.63;31518276;28;20072;-86
2023/10/01 05:26:35;;;;;;;22.92;11.38;;;;;;;23.84;61.20;100280.66;31480204;28;20053;-79
2023/10/01 05:41:44;;;;;;;33.20;11.65;;;;;;;24.92;60.55;100285.38;31518304;28;20413;-79
2023/10/01 05:56:48;;;;;;;35.83;15.68;;;;;;;26.20;56.77;100280.84;31526180;28;20052;-86
2023/10/01 06:12:03;;;;;;;34.75;14.40;;;;;;;27.46;51.55;100273.34;31498034;28;20097;-86
2023/10/01 06:27:06;;;;;;;24.58;12.15;;;;;;;29.02;47.17;100273.19;31473256;28;20079;-80
2023/10/01 06:42:20;;;;;;;;;;;;;;;29.94;44.87;100276.81;31506031;28;20044;-83
2023/10/01 06:57:27;;;;;;;28.35;11.02;;;;;;;30.97;43.31;100281.25;31457322;28;19927;-82
2023/10/01 07:12:31;;;;;;;15.60;7.03;;;;;;;32.19;39.35;100278.50;31501602;28;20052;-85
2023/10/01 07:27:34;;;;;;;17.45;7.50;;;;;;;33.14;35.68;100263.69;31455614;28;20481;-84
2023/10/01 07:43:01;;;;;;;20.02;7.30;;;;;;;34.40;35.39;100260.16;31486785;28;20049;-85
2023/10/01 08:13:28;;;;;;;13.38;4.95;;;;;;;35.39;31.35;100244.69;31481446;28;20108;-86
2023/10/01 08:28:43;;;;;;;11.00;5.67;;;;;;;35.87;30.29;100227.88;31454151;28;20049;-83
2023/10/01 08:44:08;;;;;;;16.27;8.50;;;;;;;36.46;28.91;100212.38;31473151;28;20310;-80
2023/10/01 08:59:25;;;;;;;39.47;20.52;;;;;;;37.06;28.85;100198.22;31463669;28;20083;-78
2023/10/01 09:14:39;;;;;;;25.55;7.20;;;;;;;37.08;26.89;100189.88;31473545;28;20142;-73
2023/10/01 09:29:44;;;;;;;15.07;6.55;;;;;;;37.27;27.91;100192.63;31459191;28;20040;-74
2023/10/01 09:44:49;;;;;;;20.52;7.05;;;;;;;37.48;27.40;100186.25;31453791;28;20052;-75
2023/10/01 10:00:14;;;;;;;24.23;8.60;;;;;;;37.82;27.61;100179.28;31433340;28;20075;-73
2023/10/01 10:15:16;;;;;;;28.02;9.93;;;;;;;37.45;27.52;100171.22;31457803;28;20064;-73
2023/10/01 10:30:21;;;;;;;16.50;8.90;;;;;;;37.55;27.48;100157.72;31480818;28;20048;-78
2023/10/01 10:45:31;;;;;;;15.52;5.88;;;;;;;37.92;26.66;100148.06;31482807;28;20098;-79
2023/10/01 11:00:39;;;;;;;19.92;5.25;;;;;;;37.78;26.03;100128.81;31465065;28;20052;-79
2023/10/01 11:15:42;;;;;;;17.70;6.47;;;;;;;38.04;26.54;100118.41;31457309;28;20049;-79
2023/10/01 11:30:45;;;;;;;8.05;4.07;;;;;;;39.30;25.24;100100.56;31463480;28;20056;-80
2023/10/01 11:45:48;;;;;;;12.80;5.80;;;;;;;39.47;25.75;100097.31;31467335;28;20091;-79
2023/10/01 12:00:53;;;;;;;16.00;5.68;;;;;;;37.99;25.98;100082.69;31456669;28;20080;-79
2023/10/01 12:15:56;;;;;;;33.08;12.32;;;;;;;35.06;27.76;100075.00;31456893;28;20060;-78
2023/10/01 12:31:23;;;;;;;14.55;6.50;;;;;;;33.74;28.43;100061.91;31455504;28;20451;-78
2023/10/01 12:46:25;;;;;;;10.57;4.97;;;;;;;32.98;29.65;100046.56;31473690;28;20045;-79
2023/10/01 13:01:31;;;;;;;15.38;6.93;;;;;;;32.37;29.96;100046.28;31454121;28;20051;-81
2023/10/01 13:16:34;;;;;;;14.35;7.95;;;;;;;32.12;29.97;100032.97;31449520;28;20060;-79
2023/10/01 13:31:40;;;;;;;10.45;5.03;;;;;;;31.81;30.10;100011.97;31448922;28;20052;-80
2023/10/01 14:17:25;;;;;;;6.15;3.05;;;;;;;31.15;29.99;99996.31;31466245;28;20080;-78
2023/10/01 14:32:34;;;;;;;9.27;3.50;;;;;;;30.77;30.57;100001.94;31457134;28;20048;-79
2023/10/01 14:47:39;;;;;;;7.35;2.70;;;;;;;30.49;30.97;99994.44;31457836;28;20052;-78
2023/10/01 15:02:43;;;;;;;5.68;2.97;;;;;;;30.25;31.48;99992.19;31470435;28;20098;-72
2023/10/01 15:17:45;;;;;;;7.18;3.38;;;;;;;30.07;31.43;100000.38;31478104;28;20051;-73
2023/10/01 15:32:59;;;;;;;6.70;3.75;;;;;;;29.84;32.27;99996.75;31460170;28;20049;-78
2023/10/01 15:48:07;;;;;;;13.50;4.45;;;;;;;29.56;32.43;100002.44;31460599;28;20124;-78
2023/10/01 16:03:11;;;;;;;12.65;4.68;;;;;;;29.19;33.21;100010.06;31464629;28;20048;-79
2023/10/01 16:18:15;;;;;;;9.50;5.15;;;;;;;28.88;33.95;100009.09;31482455;28;20057;-84
2023/10/01 16:33:18;;;;;;;14.20;7.03;;;;;;;28.43;34.23;100003.88;31490742;28;20048;-81
2023/10/01 16:48:25;;;;;;;14.73;7.05;;;;;;;28.19;35.11;100007.72;31506478;28;20049;-82
2023/10/01 17:03:35;;;;;;;18.55;7.75;;;;;;;27.89;35.61;100002.56;31503427;28;20117;-81
2023/10/01 17:18:48;;;;;;;19.75;8.25;;;;;;;27.64;35.76;100004.13;31499233;28;20061;-81
2023/10/01 17:34:03;;;;;;;19.65;7.20;;;;;;;27.31;36.88;100006.31;31510975;28;20093;-83
2023/10/01 17:49:07;;;;;;;25.05;9.30;;;;;;;27.08;36.83;100006.00;31480503;28;20052;-78
2023/10/01 18:04:10;;;;;;;24.02;10.10;;;;;;;26.71;37.30;100012.44;31518250;28;20103;-74
2023/10/01 18:19:17;;;;;;;;;;;;;;;26.36;38.63;100007.22;31494100;28;20072;-74
2023/10/01 18:34:27;;;;;;;24.63;9.52;;;;;;;26.08;38.35;100011.16;31473946;28;20340;-74
2023/10/01 18:49:29;;;;;;;18.83;10.48;;;;;;;25.88;38.51;100008.16;31474894;28;20456;-73
2023/10/01 19:04:31;;;;;;;21.80;8.50;;;;;;;25.80;38.73;100002.44;31466768;28;20065;-75
2023/10/01 19:19:33;;;;;;;26.92;10.65;;;;;;;25.52;38.92;100002.00;31462367;28;20044;-75
2023/10/01 19:34:37;;;;;;;21.20;9.68;;;;;;;25.17;39.37;99978.69;31481781;28;20052;-82
2023/10/01 19:49:40;;;;;;;21.90;9.07;;;;;;;25.12;39.30;99973.94;31463714;28;20486;-82
2023/10/01 20:04:48;;;;;;;24.37;11.27;;;;;;;24.73;40.28;100000.06;31488178;28;20059;-80
2023/10/01 20:19:50;;;;;;;23.15;11.82;;;;;;;24.41;40.80;100010.16;31475426;28;20044;-81
2023/10/01 20:34:53;;;;;;;33.40;11.85;;;;;;;24.08;44.03;100011.91;31483529;28;20739;-77
2023/10/01 20:49:56;;;;;;;28.53;12.97;;;;;;;23.97;47.39;100011.94;31485418;28;20147;-79
2023/10/01 21:04:59;;;;;;;28.92;15.27;;;;;;;23.84;50.54;100014.56;31456063;28;20052;-78
2023/10/01 21:20:17;;;;;;;29.50;14.07;;;;;;;23.54;53.03;100013.69;31444357;28;20040;-77
2023/10/01 21:35:21;;;;;;;28.02;15.13;;;;;;;23.25;57.16;100007.44;31463800;28;20475;-77
2023/10/01 21:50:30;;;;;;;26.23;12.40;;;;;;;23.03;61.47;100010.28;31431577;28;20510;-78
2023/10/01 22:05:37;;;;;;;27.42;12.35;;;;;;;22.83;67.35;99994.72;31474649;28;20075;-77
2023/10/01 22:20:40;;;;;;;28.55;13.40;;;;;;;22.50;73.02;100003.75;31482648;28;20341;-78
2023/10/01 22:35:44;;;;;;;20.35;11.43;;;;;;;22.28;78.21;99992.69;31459188;28;20051;-77
2023/10/01 22:50:50;;;;;;;20.42;12.85;;;;;;;22.06;83.55;99966.53;31478569;28;20120;-77
2023/10/01 23:05:53;;;;;;;19.75;10.48;;;;;;;21.99;87.49;99958.69;31464505;28;20140;-77
2023/10/01 23:20:58;;;;;;;17.33;9.85;;;;;;;21.84;93.00;99943.59;31464730;28;20048;-76
2023/10/01 23:36:08;;;;;;;22.60;10.18;;;;;;;21.61;98.05;99915.94;31475152;28;20476;-77
2023/10/01 23:51:10;;;;;;;18.05;10.10;;;;;;;21.58;100.00;99921.69;31456173;28;20064;-78
